Time;durP1;ratioP1;P1;durP2;ratioP2;P2;SDS_P1;SDS_P2;PMS_P1;PMS_P2;Temp;Humidity;BMP_temperature;BMP_pressure;BME280_temperature;BME280_humidity;BME280_pressure;Samples;Min_cycle;Max_cycle;Signal;HPM_P1;HPM_P2
2023/07/09 00:00:48;;;;;;;9.47;5.33;;;23.90;65.10;;;;;;5031061;28;20460;-79
2023/07/09 00:03:14;;;;;;;8.50;5.30;;;23.90;65.30;;;;;;5042141;28;20454;-79
2023/07/09 00:05:41;;;;;;;8.10;5.20;;;23.90;65.30;;;;;;5046109;28;20463;-79
2023/07/09 00:08:26;;;;;;;9.30;5.00;;;24.00;64.80;;;;;;5043827;28;20482;-80
2023/07/09 00:10:53;;;;;;;7.87;4.77;;;24.00;64.50;;;;;;5037719;28;20482;-79
2023/07/09 00:13:19;;;;;;;7.77;5.00;;;24.00;64.50;;;;;;5040071;28;20434;-79
2023/07/09 00:15:45;;;;;;;8.83;5.03;;;24.00;64.70;;;;;;5042173;28;20425;-80
2023/07/09 00:18:11;;;;;;;7.00;4.70;;;24.00;64.70;;;;;;5036620;28;20503;-78
2023/07/09 00:20:36;;;;;;;9.00;4.67;;;24.10;64.50;;;;;;5039295;28;20214;-80
2023/07/09 00:23:04;;;;;;;9.00;5.50;;;24.00;64.70;;;;;;5042131;28;20863;-80
2023/07/09 00:25:30;;;;;;;11.50;5.73;;;24.00;64.70;;;;;;5043568;28;20176;-80
2023/07/09 00:27:56;;;;;;;13.23;6.77;;;24.00;65.10;;;;;;5029712;28;20503;-79
2023/07/09 00:30:23;;;;;;;10.53;5.97;;;23.90;65.40;;;;;;5041318;28;20462;-79
2023/07/09 00:32:51;;;;;;;11.60;6.13;;;23.70;65.70;;;;;;5041967;28;20188;-79
2023/07/09 00:35:18;;;;;;;8.57;6.13;;;23.60;66.00;;;;;;5033400;28;20443;-79
2023/07/09 00:37:44;;;;;;;12.93;6.53;;;23.50;66.10;;;;;;5027328;28;20440;-79
2023/07/09 00:40:18;;;;;;;14.07;6.30;;;23.50;66.60;;;;;;5022625;28;20496;-80
2023/07/09 00:42:49;;;;;;;8.40;4.83;;;23.40;66.60;;;;;;5023865;28;20559;-79
2023/07/09 00:45:21;;;;;;;8.43;5.13;;;23.30;66.60;;;;;;5036319;28;20441;-82
2023/07/09 00:48:00;;;;;;;10.83;5.70;;;23.30;66.60;;;;;;5030073;28;20522;-80
2023/07/09 00:50:46;;;;;;;8.30;4.90;;;23.30;66.60;;;;;;5029714;28;20533;-79
2023/07/09 00:53:22;;;;;;;10.00;5.73;;;23.30;66.60;;;;;;5028604;28;20413;-80
2023/07/09 00:56:04;;;;;;;11.83;5.83;;;23.20;66.60;;;;;;5018393;28;20952;-80
2023/07/09 00:58:31;;;;;;;12.93;6.13;;;23.20;66.70;;;;;;5024179;28;20425;-80
2023/07/09 01:01:05;;;;;;;8.50;5.37;;;23.20;66.70;;;;;;5027881;28;20466;-80
2023/07/09 01:03:42;;;;;;;10.80;5.27;;;23.20;67.00;;;;;;5032184;28;20454;-80
2023/07/09 01:06:09;;;;;;;11.37;5.43;;;23.20;66.90;;;;;;5034705;28;20441;-80
2023/07/09 01:08:41;;;;;;;10.90;5.37;;;23.10;66.90;;;;;;5035982;28;20496;-79
2023/07/09 01:11:20;;;;;;;10.73;5.83;;;23.10;66.90;;;;;;5035403;28;20464;-79
2023/07/09 01:13:51;;;;;;;6.40;4.80;;;23.10;66.90;;;;;;5026396;28;20437;-80
2023/07/09 01:16:18;;;;;;;7.10;4.50;;;23.10;67.30;;;;;;5027840;28;20435;-80
2023/07/09 01:18:43;;;;;;;8.07;4.50;;;23.10;67.30;;;;;;5038309;28;20891;-80
2023/07/09 01:21:16;;;;;;;9.33;4.57;;;23.10;67.30;;;;;;5020209;28;20462;-80
2023/07/09 01:23:46;;;;;;;7.73;4.43;;;23.20;67.20;;;;;;5026140;28;20199;-80
2023/07/09 01:26:15;;;;;;;8.23;4.50;;;23.20;67.20;;;;;;5031647;28;20418;-78
2023/07/09 01:28:43;;;;;;;9.80;5.90;;;23.10;67.20;;;;;;5022469;28;20452;-80
2023/07/09 01:31:14;;;;;;;9.50;5.23;;;23.10;67.20;;;;;;5030002;28;20466;-81
2023/07/09 01:33:44;;;;;;;8.00;5.87;;;23.00;67.30;;;;;;5025148;28;20439;-80
2023/07/09 01:36:13;;;;;;;8.23;5.40;;;22.80;67.90;;;;;;5032279;28;20429;-80
2023/07/09 01:38:39;;;;;;;7.40;5.63;;;22.50;68.30;;;;;;5040181;28;20498;-79
2023/07/09 01:41:05;;;;;;;10.17;6.13;;;22.30;68.80;;;;;;5040951;28;20520;-80
2023/07/09 01:43:32;;;;;;;11.60;6.00;;;22.20;68.90;;;;;;5036896;28;20432;-80
2023/07/09 01:45:58;;;;;;;9.77;5.60;;;22.20;68.90;;;;;;5036681;28;20435;-80
2023/07/09 01:48:25;;;;;;;11.53;6.23;;;22.20;68.90;;;;;;5025446;28;20554;-79
2023/07/09 01:50:52;;;;;;;11.47;6.50;;;22.20;68.90;;;;;;5033446;28;20894;-79
2023/07/09 01:53:23;;;;;;;8.20;5.83;;;22.20;68.90;;;;;;5023896;28;20439;-78
2023/07/09 01:55:54;;;;;;;10.20;6.23;;;22.10;69.10;;;;;;5022626;28;20431;-80
2023/07/09 01:58:24;;;;;;;11.20;6.10;;;22.20;69.10;;;;;;5021777;28;20961;-80
2023/07/09 02:00:50;;;;;;;9.10;5.43;;;22.20;68.80;;;;;;5030679;28;20495;-78
2023/07/09 02:03:17;;;;;;;12.33;6.30;;;22.20;68.90;;;;;;5034510;28;20469;-78
2023/07/09 02:05:43;;;;;;;9.63;6.07;;;22.10;69.10;;;;;;5030458;28;20446;-79
2023/07/09 02:08:09;;;;;;;7.73;5.40;;;22.00;69.40;;;;;;5030630;28;20546;-80
2023/07/09 02:10:35;;;;;;;8.70;5.80;;;22.00;69.40;;;;;;5028925;28;20471;-79
2023/07/09 02:13:01;;;;;;;11.57;6.67;;;22.10;69.10;;;;;;5041427;28;20224;-80
2023/07/09 02:15:26;;;;;;;10.33;5.97;;;22.10;68.80;;;;;;5035391;28;20565;-79
2023/07/09 02:17:52;;;;;;;9.23;5.10;;;22.10;68.60;;;;;;5033475;28;20443;-81
2023/07/09 02:20:19;;;;;;;8.27;5.50;;;22.10;68.80;;;;;;5021099;28;20217;-79
2023/07/09 02:22:45;;;;;;;8.37;5.40;;;22.10;69.10;;;;;;5021594;28;20196;-81
2023/07/09 02:25:10;;;;;;;10.73;5.77;;;22.20;68.90;;;;;;5025286;28;20489;-78
2023/07/09 02:27:37;;;;;;;7.80;6.00;;;22.20;68.90;;;;;;5025571;28;20483;-80
2023/07/09 02:30:04;;;;;;;7.37;5.50;;;22.20;68.90;;;;;;5026427;28;20238;-80
2023/07/09 02:32:30;;;;;;;10.40;5.03;;;22.20;68.90;;;;;;5032207;28;20431;-78
2023/07/09 02:34:56;;;;;;;14.00;5.70;;;22.30;68.80;;;;;;5032878;28;20531;-78
2023/07/09 02:37:24;;;;;;;11.77;5.57;;;22.30;68.60;;;;;;5031999;28;20248;-79
2023/07/09 02:39:50;;;;;;;9.63;5.80;;;22.20;68.80;;;;;;5035295;28;20358;-79
2023/07/09 02:42:18;;;;;;;8.20;5.03;;;22.10;69.20;;;;;;5036388;28;20427;-79
2023/07/09 02:44:44;;;;;;;7.53;5.10;;;21.90;69.40;;;;;;5025724;28;20858;-80
2023/07/09 02:47:12;;;;;;;9.50;5.27;;;21.70;69.50;;;;;;5029478;28;20513;-79
2023/07/09 02:49:38;;;;;;;10.10;6.10;;;21.70;69.40;;;;;;5027665;28;20458;-80
2023/07/09 02:52:04;;;;;;;10.30;5.47;;;21.70;69.50;;;;;;5040708;28;20470;-79
2023/07/09 02:54:30;;;;;;;8.60;5.10;;;21.70;69.50;;;;;;5038335;28;20193;-79
2023/07/09 02:56:56;;;;;;;10.87;5.50;;;21.80;69.50;;;;;;5035942;28;20448;-79
2023/07/09 02:59:22;;;;;;;8.77;5.57;;;21.90;69.20;;;;;;5034665;28;20663;-80
2023/07/09 03:01:47;;;;;;;11.90;6.67;;;21.90;69.10;;;;;;5039623;28;20209;-81
2023/07/09 03:04:16;;;;;;;8.77;5.30;;;21.90;69.20;;;;;;5022807;28;20194;-78
2023/07/09 03:06:42;;;;;;;8.10;4.80;;;21.90;69.20;;;;;;5026302;28;20216;-80
2023/07/09 03:09:09;;;;;;;9.33;5.67;;;22.00;69.20;;;;;;5035262;28;20448;-80
2023/07/09 03:11:35;;;;;;;10.07;6.17;;;22.00;69.10;;;;;;5028527;28;20208;-80
2023/07/09 03:14:02;;;;;;;7.10;5.07;;;22.00;69.20;;;;;;5025666;28;20444;-81
2023/07/09 03:16:29;;;;;;;8.63;5.33;;;21.90;69.40;;;;;;5026897;28;20459;-80
2023/07/09 03:18:56;;;;;;;7.17;5.00;;;22.10;69.20;;;;;;5058709;22;20417;-76
2023/07/09 03:21:23;;;;;;;8.20;4.80;;;22.10;69.10;;;;;;5000376;28;20546;-77
2023/07/09 03:23:49;;;;;;;8.87;5.00;;;22.10;68.60;;;;;;5003957;28;20456;-76
2023/07/09 03:26:14;;;;;;;8.70;5.63;;;22.00;69.20;;;;;;5010225;28;20485;-77
2023/07/09 03:28:40;;;;;;;8.77;5.47;;;21.90;69.20;;;;;;5003057;28;20663;-76
2023/07/09 03:31:06;;;;;;;9.67;5.60;;;21.90;69.20;;;;;;5004872;28;20209;-75
2023/07/09 03:33:32;;;;;;;9.13;5.10;;;21.80;69.40;;;;;;5011967;28;21150;-77
2023/07/09 03:35:58;;;;;;;9.57;5.30;;;21.80;69.50;;;;;;5002860;28;20909;-75
2023/07/09 03:38:23;;;;;;;9.00;5.37;;;21.70;69.50;;;;;;5009940;28;20275;-74
2023/07/09 03:40:55;;;;;;;10.13;5.10;;;21.70;69.50;;;;;;5012439;28;20226;-75
2023/07/09 03:43:22;;;;;;;9.50;4.90;;;21.60;69.50;;;;;;5012539;28;20196;-74
2023/07/09 03:45:48;;;;;;;7.00;4.70;;;21.60;69.50;;;;;;5004878;28;20518;-75
2023/07/09 03:48:15;;;;;;;9.37;5.77;;;21.60;69.50;;;;;;4998820;28;20980;-76
2023/07/09 03:50:43;;;;;;;8.97;5.10;;;21.70;69.40;;;;;;4996724;28;20531;-75
2023/07/09 03:53:09;;;;;;;8.77;5.43;;;21.60;69.40;;;;;;5006583;28;20927;-74
2023/07/09 03:55:34;;;;;;;10.00;4.73;;;21.60;69.50;;;;;;5000447;28;20436;-75
2023/07/09 03:58:02;;;;;;;7.83;4.73;;;21.60;69.40;;;;;;4997849;28;20559;-75
2023/07/09 04:00:28;;;;;;;9.00;5.30;;;21.70;69.40;;;;;;5010479;28;20227;-74
2023/07/09 04:02:56;;;;;;;8.30;5.23;;;21.80;69.20;;;;;;5015340;28;20432;-75
2023/07/09 04:05:23;;;;;;;8.70;5.13;;;21.80;68.90;;;;;;5002252;28;20187;-74
2023/07/09 04:07:48;;;;;;;7.60;4.60;;;21.80;69.10;;;;;;5007222;28;20491;-74
2023/07/09 04:10:14;;;;;;;10.37;6.07;;;21.80;69.10;;;;;;5000773;28;20541;-77
2023/07/09 04:12:40;;;;;;;7.60;4.93;;;21.80;69.20;;;;;;5007430;28;20548;-75
2023/07/09 04:15:06;;;;;;;10.77;5.73;;;21.90;69.10;;;;;;5003995;28;20438;-75
2023/07/09 04:17:32;;;;;;;9.40;5.70;;;21.90;69.10;;;;;;5010122;28;20277;-75
2023/07/09 04:19:58;;;;;;;11.27;5.40;;;21.80;69.20;;;;;;5008201;28;20494;-76
2023/07/09 04:22:24;;;;;;;11.40;5.53;;;21.80;69.40;;;;;;5007020;28;20920;-78
2023/07/09 04:24:51;;;;;;;9.40;5.30;;;21.70;69.40;;;;;;5006169;28;20222;-76
2023/07/09 04:27:18;;;;;;;8.73;6.00;;;21.80;69.20;;;;;;4995868;28;20247;-77
2023/07/09 04:29:43;;;;;;;9.27;5.60;;;21.80;69.40;;;;;;4999086;28;20485;-76
2023/07/09 04:32:14;;;;;;;7.80;5.30;;;21.80;69.40;;;;;;5001653;28;20490;-76
2023/07/09 04:34:40;;;;;;;11.03;5.17;;;21.80;69.40;;;;;;5000011;28;20260;-76
2023/07/09 04:37:11;;;;;;;7.87;5.63;;;21.90;69.20;;;;;;4997862;28;20436;-76
2023/07/09 04:39:37;;;;;;;9.90;5.87;;;22.00;69.10;;;;;;4999958;28;20440;-77
2023/07/09 04:42:03;;;;;;;8.83;5.20;;;22.00;69.20;;;;;;5007145;28;20460;-77
2023/07/09 04:44:28;;;;;;;9.13;5.93;;;21.90;69.40;;;;;;5008611;28;20188;-77
2023/07/09 04:46:54;;;;;;;10.37;5.90;;;21.80;69.40;;;;;;5002730;28;20471;-75
2023/07/09 04:49:20;;;;;;;10.93;5.43;;;21.70;69.50;;;;;;5005734;28;20254;-76
2023/07/09 04:51:45;;;;;;;15.43;5.70;;;21.70;69.50;;;;;;5002672;28;20194;-76
2023/07/09 04:54:13;;;;;;;8.47;5.73;;;21.80;69.70;;;;;;5016384;28;20211;-76
2023/07/09 04:56:39;;;;;;;7.87;5.10;;;21.80;69.40;;;;;;5003967;28;20652;-77
2023/07/09 04:59:05;;;;;;;9.70;5.83;;;21.80;69.50;;;;;;5004479;28;20467;-76
2023/07/09 05:01:30;;;;;;;9.40;5.67;;;21.90;69.20;;;;;;5005852;28;20213;-77
2023/07/09 05:03:56;;;;;;;10.40;6.23;;;22.00;69.40;;;;;;5004655;28;20188;-77
2023/07/09 05:06:22;;;;;;;9.10;5.50;;;22.00;69.40;;;;;;4998970;28;20236;-76
2023/07/09 05:08:48;;;;;;;13.03;5.97;;;22.00;69.20;;;;;;5003291;28;20633;-77
2023/07/09 05:11:14;;;;;;;8.07;5.03;;;22.00;69.20;;;;;;5005093;28;20844;-77
2023/07/09 05:13:40;;;;;;;10.47;6.10;;;22.00;69.40;;;;;;5002316;28;20480;-76
2023/07/09 05:16:06;;;;;;;9.43;5.90;;;22.10;69.40;;;;;;5009052;28;20436;-75
2023/07/09 05:18:32;;;;;;;11.63;5.93;;;22.10;68.90;;;;;;5019054;28;20449;-75
2023/07/09 05:20:57;;;;;;;9.77;5.80;;;22.20;69.10;;;;;;5017251;28;20237;-76
2023/07/09 05:23:25;;;;;;;8.23;5.60;;;22.30;69.10;;;;;;5014263;28;20190;-76
2023/07/09 05:26:01;;;;;;;8.37;5.80;;;22.40;68.90;;;;;;5008818;28;20201;-76
2023/07/09 05:28:28;;;;;;;13.60;6.77;;;22.40;68.90;;;;;;5007961;28;20498;-76
2023/07/09 05:30:53;;;;;;;10.10;6.73;;;22.50;68.90;;;;;;5000798;28;20489;-76
2023/07/09 05:33:19;;;;;;;10.20;6.60;;;22.70;68.90;;;;;;5009715;28;20430;-77
2023/07/09 05:35:45;;;;;;;13.80;6.13;;;22.70;68.60;;;;;;4998032;28;20199;-77
2023/07/09 05:38:13;;;;;;;9.50;5.80;;;22.90;68.30;;;;;;4998651;28;20191;-75
2023/07/09 05:40:38;;;;;;;9.30;6.70;;;23.00;68.20;;;;;;4998522;28;20475;-76
2023/07/09 05:43:04;;;;;;;9.20;6.27;;;23.10;68.00;;;;;;4998448;28;20478;-77
2023/07/09 05:45:31;;;;;;;11.33;6.80;;;23.20;67.90;;;;;;4999222;28;20334;-77
2023/07/09 05:47:58;;;;;;;9.37;6.07;;;23.30;67.50;;;;;;5002902;28;20686;-75
2023/07/09 05:50:24;;;;;;;8.17;5.63;;;23.40;67.20;;;;;;5004164;28;20628;-76
2023/07/09 05:52:50;;;;;;;12.10;5.67;;;23.50;66.70;;;;;;5004726;28;20450;-76
2023/07/09 05:55:16;;;;;;;11.23;6.27;;;23.60;66.70;;;;;;5004231;28;20948;-76
2023/07/09 05:57:41;;;;;;;8.73;6.20;;;23.70;66.40;;;;;;5003028;28;20616;-77
2023/07/09 06:00:08;;;;;;;11.80;6.17;;;23.80;66.40;;;;;;5006443;28;20212;-76
2023/07/09 06:02:33;;;;;;;11.67;6.47;;;23.60;66.60;;;;;;5007443;28;20197;-75
2023/07/09 06:04:59;;;;;;;10.43;6.50;;;23.70;66.70;;;;;;5008485;28;20436;-76
2023/07/09 06:07:24;;;;;;;9.60;6.07;;;23.90;66.60;;;;;;5006601;28;20665;-76
2023/07/09 06:09:50;;;;;;;8.70;6.20;;;24.00;66.30;;;;;;5011044;28;20712;-75
2023/07/09 06:12:18;;;;;;;14.53;6.10;;;24.10;65.70;;;;;;5022899;28;20237;-75
2023/07/09 06:14:44;;;;;;;9.43;5.40;;;24.30;64.80;;;;;;5020437;28;20204;-75
2023/07/09 06:17:09;;;;;;;10.90;5.63;;;24.40;64.80;;;;;;5028440;28;20524;-76
2023/07/09 06:19:35;;;;;;;7.43;5.97;;;24.50;64.50;;;;;;5026015;28;20317;-74
2023/07/09 06:22:00;;;;;;;12.20;6.03;;;24.60;64.50;;;;;;5017759;28;20193;-76
2023/07/09 06:24:26;;;;;;;8.87;5.77;;;24.70;64.10;;;;;;5008395;28;20184;-75
2023/07/09 06:26:52;;;;;;;8.87;5.60;;;24.80;63.80;;;;;;5009805;28;20215;-76
2023/07/09 06:29:17;;;;;;;12.23;7.20;;;24.90;63.50;;;;;;5008867;28;20193;-75
2023/07/09 06:31:43;;;;;;;11.43;6.37;;;24.80;64.20;;;;;;5010915;28;20309;-75
2023/07/09 06:34:09;;;;;;;14.40;7.50;;;24.80;64.50;;;;;;5014413;28;20190;-75
2023/07/09 06:36:35;;;;;;;8.87;5.90;;;24.90;64.40;;;;;;5002375;28;20568;-74
2023/07/09 06:39:02;;;;;;;11.80;7.07;;;25.00;63.90;;;;;;5007867;28;20445;-75
2023/07/09 06:41:28;;;;;;;12.33;6.63;;;25.00;63.80;;;;;;5009960;28;20483;-75
2023/07/09 06:43:53;;;;;;;9.07;6.30;;;25.20;63.70;;;;;;5005960;28;20480;-76
2023/07/09 06:46:20;;;;;;;11.90;6.87;;;25.30;63.40;;;;;;5006605;28;20251;-76
2023/07/09 06:48:46;;;;;;;10.20;5.93;;;25.30;63.20;;;;;;5009906;28;20317;-74
2023/07/09 06:51:12;;;;;;;10.23;6.30;;;25.30;63.50;;;;;;5007392;28;20494;-75
2023/07/09 06:53:39;;;;;;;8.10;5.70;;;25.50;63.20;;;;;;5006886;28;20470;-76
2023/07/09 06:56:05;;;;;;;9.70;6.87;;;25.60;62.80;;;;;;5007283;28;20460;-75
2023/07/09 06:58:33;;;;;;;10.20;6.60;;;25.80;62.20;;;;;;5012402;28;20446;-76
2023/07/09 07:01:04;;;;;;;9.80;6.40;;;25.80;62.20;;;;;;5012950;28;20295;-77
2023/07/09 07:03:32;;;;;;;9.40;7.20;;;25.80;62.30;;;;;;5012164;28;20449;-75
2023/07/09 07:05:58;;;;;;;12.13;6.47;;;25.90;61.90;;;;;;5012203;28;20467;-76
2023/07/09 07:08:25;;;;;;;11.27;7.03;;;26.00;61.90;;;;;;5006253;28;20487;-75
2023/07/09 07:11:02;;;;;;;10.80;6.70;;;26.10;61.70;;;;;;5012579;28;21047;-75
2023/07/09 07:13:32;;;;;;;11.23;6.00;;;26.20;61.70;;;;;;5010494;28;20444;-74
2023/07/09 07:15:58;;;;;;;13.90;6.47;;;26.20;61.90;;;;;;5017255;28;20456;-76
2023/07/09 07:18:24;;;;;;;11.10;7.00;;;26.20;61.30;;;;;;5006461;28;20439;-75
2023/07/09 07:20:50;;;;;;;8.77;6.17;;;26.30;61.30;;;;;;5012365;28;20214;-75
2023/07/09 07:23:17;;;;;;;9.33;6.27;;;26.40;60.70;;;;;;5017192;28;20253;-77
2023/07/09 07:25:44;;;;;;;13.10;6.67;;;26.50;60.40;;;;;;5015200;28;20451;-76
2023/07/09 07:28:10;;;;;;;12.10;7.20;;;26.60;59.90;;;;;;5008645;28;20543;-75
2023/07/09 07:30:35;;;;;;;10.47;6.43;;;26.80;59.70;;;;;;5013055;28;20467;-75
2023/07/09 07:33:01;;;;;;;8.53;6.50;;;26.80;59.30;;;;;;5003634;28;20205;-74
2023/07/09 07:35:26;;;;;;;10.37;7.47;;;26.90;59.90;;;;;;4999102;28;20202;-75
2023/07/09 07:37:52;;;;;;;10.90;6.37;;;27.00;60.10;;;;;;4999879;28;20207;-74
2023/07/09 07:40:17;;;;;;;12.03;6.47;;;27.10;60.30;;;;;;5000621;28;20336;-74
2023/07/09 07:42:43;;;;;;;12.47;6.57;;;27.20;59.30;;;;;;5011230;28;20256;-75
2023/07/09 07:45:09;;;;;;;11.50;7.07;;;27.30;59.10;;;;;;5007875;28;20205;-75
2023/07/09 07:47:35;;;;;;;10.13;6.87;;;27.40;58.70;;;;;;5006566;28;20233;-75
2023/07/09 07:50:01;;;;;;;10.60;6.97;;;27.50;58.50;;;;;;5005709;28;20461;-75
2023/07/09 07:52:27;;;;;;;11.33;6.30;;;27.60;57.40;;;;;;5008598;28;20528;-75
2023/07/09 07:54:54;;;;;;;9.20;6.50;;;27.60;57.40;;;;;;5008842;28;20711;-73
2023/07/09 07:57:19;;;;;;;10.93;6.33;;;27.80;56.40;;;;;;5003074;28;20907;-75
2023/07/09 07:59:46;;;;;;;9.00;6.20;;;28.00;56.20;;;;;;5002503;28;20489;-76
2023/07/09 08:02:13;;;;;;;11.70;6.70;;;28.10;56.40;;;;;;5005826;28;20225;-76
2023/07/09 08:04:40;;;;;;;8.70;5.83;;;28.10;57.00;;;;;;5005167;28;20808;-76
2023/07/09 08:07:07;;;;;;;10.23;6.53;;;28.20;56.10;;;;;;5004781;28;20987;-76
2023/07/09 08:09:34;;;;;;;9.87;5.90;;;28.40;55.20;;;;;;5010150;28;20808;-77
2023/07/09 08:12:01;;;;;;;11.90;6.63;;;28.50;55.30;;;;;;5007851;28;20432;-76
2023/07/09 08:14:26;;;;;;;12.00;6.50;;;28.60;55.60;;;;;;5005750;28;20436;-76
2023/07/09 08:16:52;;;;;;;11.67;6.97;;;28.70;55.20;;;;;;5006597;28;20435;-76
2023/07/09 08:19:20;;;;;;;8.60;6.47;;;28.60;55.00;;;;;;4996423;28;20236;-78
2023/07/09 08:21:46;;;;;;;7.23;5.90;;;28.70;54.50;;;;;;5000097;28;20201;-76
2023/07/09 08:24:14;;;;;;;9.30;5.90;;;28.80;54.00;;;;;;5003074;28;20816;-76
2023/07/09 08:26:40;;;;;;;13.40;5.90;;;28.90;53.80;;;;;;5002109;28;20672;-76
2023/07/09 08:29:05;;;;;;;11.40;6.20;;;28.90;53.00;;;;;;5002340;28;20432;-78
2023/07/09 08:31:31;;;;;;;10.63;6.20;;;29.00;52.50;;;;;;5003083;28;20720;-76
2023/07/09 08:33:57;;;;;;;10.37;6.60;;;29.10;52.60;;;;;;5012546;28;20190;-75
2023/07/09 08:36:23;;;;;;;8.93;6.60;;;29.10;53.40;;;;;;5005005;28;20183;-75
2023/07/09 08:38:49;;;;;;;8.33;6.53;;;29.00;53.60;;;;;;5001881;28;20914;-75
2023/07/09 08:41:33;;;;;;;11.43;6.67;;;29.00;53.30;;;;;;5003947;28;20469;-76
2023/07/09 08:44:36;;;;;;;8.80;6.10;;;29.10;53.30;;;;;;5006898;28;20273;-76
2023/07/09 08:47:22;;;;;;;9.53;6.40;;;29.20;53.30;;;;;;5005888;28;20464;-76
2023/07/09 08:49:59;;;;;;;11.03;7.10;;;29.20;53.00;;;;;;5007867;28;20468;-76
2023/07/09 08:52:37;;;;;;;12.20;6.83;;;29.20;53.30;;;;;;5009075;28;20440;-75
2023/07/09 08:55:27;;;;;;;11.70;7.13;;;29.30;53.30;;;;;;4998062;28;20429;-77
2023/07/09 08:58:00;;;;;;;9.83;6.33;;;29.50;54.00;;;;;;4998945;28;20437;-75
2023/07/09 09:00:33;;;;;;;12.03;6.87;;;29.60;53.80;;;;;;5009480;28;20547;-76
2023/07/09 09:03:21;;;;;;;10.80;7.30;;;29.60;54.00;;;;;;5011161;28;20433;-76
2023/07/09 09:05:49;;;;;;;8.50;6.93;;;29.70;53.60;;;;;;5002676;28;20487;-75
2023/07/09 09:08:37;;;;;;;10.70;6.33;;;29.80;53.00;;;;;;5007313;28;20495;-75
2023/07/09 09:11:23;;;;;;;12.20;7.20;;;29.60;53.20;;;;;;5006826;28;20478;-77
2023/07/09 09:13:53;;;;;;;13.37;6.97;;;29.80;52.90;;;;;;5009808;28;20464;-75
2023/07/09 09:16:32;;;;;;;11.33;6.77;;;30.00;52.20;;;;;;5009073;28;20487;-75
2023/07/09 09:21:36;;;;;;;10.47;6.70;;;30.10;51.60;;;;;;5045631;28;20502;-79
2023/07/09 09:24:40;;;;;;;11.47;6.70;;;30.20;51.30;;;;;;5054653;28;20518;-77
2023/07/09 09:27:08;;;;;;;10.90;6.60;;;30.40;50.70;;;;;;5052958;28;20498;-79
2023/07/09 09:29:34;;;;;;;12.30;6.33;;;30.60;50.10;;;;;;5046301;28;20473;-78
2023/07/09 09:32:22;;;;;;;9.50;6.47;;;30.60;49.90;;;;;;5051982;28;20537;-78
2023/07/09 09:34:48;;;;;;;9.90;5.93;;;30.70;49.40;;;;;;5051310;28;20463;-76
2023/07/09 09:37:30;;;;;;;13.50;6.53;;;30.80;48.90;;;;;;5047483;28;20745;-76
2023/07/09 09:39:56;;;;;;;9.60;6.63;;;30.90;49.00;;;;;;5045008;28;20494;-74
2023/07/09 09:42:25;;;;;;;9.80;6.87;;;30.80;49.40;;;;;;5050819;28;20461;-77
2023/07/09 09:44:54;;;;;;;9.27;5.63;;;30.90;49.00;;;;;;5050569;28;20460;-76
2023/07/09 09:47:20;;;;;;;7.80;5.90;;;31.00;49.00;;;;;;5049466;28;20840;-77
2023/07/09 09:49:45;;;;;;;10.83;6.07;;;31.00;47.90;;;;;;5044640;28;20984;-77
2023/07/09 09:52:14;;;;;;;7.37;6.27;;;30.90;47.70;;;;;;5051980;28;20227;-76
2023/07/09 09:54:44;;;;;;;6.73;5.30;;;30.80;47.90;;;;;;5050644;28;20292;-76
2023/07/09 09:57:24;;;;;;;9.53;5.97;;;31.00;47.50;;;;;;5059604;28;20446;-76
2023/07/09 09:59:50;;;;;;;6.80;5.17;;;30.90;46.30;;;;;;5055053;28;20470;-74
2023/07/09 10:02:24;;;;;;;8.33;5.27;;;30.90;45.40;;;;;;5049013;28;20440;-75
2023/07/09 10:04:51;;;;;;;8.00;5.10;;;31.10;45.00;;;;;;5044796;28;20485;-75
2023/07/09 10:07:30;;;;;;;8.00;5.17;;;31.30;43.50;;;;;;5047744;28;20479;-76
2023/07/09 10:09:56;;;;;;;6.00;3.97;;;31.60;41.40;;;;;;5040526;28;20490;-75
2023/07/09 10:12:36;;;;;;;6.67;4.80;;;31.90;40.70;;;;;;5050718;28;20466;-76
2023/07/09 10:15:32;;;;;;;7.77;3.97;;;32.10;39.00;;;;;;5051705;28;20193;-75
2023/07/09 10:18:13;;;;;;;7.90;4.27;;;32.50;35.90;;;;;;5050406;28;20446;-75
2023/07/09 10:20:49;;;;;;;8.30;4.10;;;33.10;34.80;;;;;;5046670;28;20477;-75
2023/07/09 10:23:30;;;;;;;8.67;4.67;;;33.40;34.90;;;;;;5046147;28;20412;-75
2023/07/09 10:26:24;;;;;;;7.90;4.00;;;33.70;34.80;;;;;;5049837;28;21838;-75
2023/07/09 10:29:04;;;;;;;7.60;4.30;;;34.00;33.10;;;;;;5050990;28;20517;-76
2023/07/09 10:31:54;;;;;;;8.60;4.50;;;34.10;32.40;;;;;;5053348;28;20467;-77
2023/07/09 10:34:36;;;;;;;6.50;3.90;;;34.50;33.20;;;;;;5050924;28;20430;-75
2023/07/09 10:37:11;;;;;;;5.37;4.17;;;35.00;32.00;;;;;;5043534;28;20431;-75
2023/07/09 10:39:47;;;;;;;9.90;4.23;;;34.90;31.30;;;;;;5046486;28;20438;-74
2023/07/09 10:42:32;;;;;;;8.30;4.33;;;35.30;30.80;;;;;;5046506;28;20565;-76
2023/07/09 10:45:10;;;;;;;5.73;3.80;;;35.10;30.80;;;;;;5049839;28;20496;-75
2023/07/09 10:47:39;;;;;;;7.63;3.80;;;35.20;31.30;;;;;;5050749;28;20466;-76
2023/07/09 10:50:13;;;;;;;6.77;4.13;;;35.40;29.90;;;;;;5050491;28;20473;-76
2023/07/09 10:52:44;;;;;;;12.60;4.00;;;35.30;28.80;;;;;;5053102;28;20515;-75
2023/07/09 10:55:18;;;;;;;6.63;4.03;;;35.10;29.10;;;;;;5054574;28;20510;-75
2023/07/09 10:58:00;;;;;;;7.60;4.00;;;35.20;29.30;;;;;;5047989;28;20513;-74
2023/07/09 11:00:37;;;;;;;5.50;3.60;;;35.50;28.40;;;;;;5048765;28;20466;-74
2023/07/09 11:03:20;;;;;;;8.13;3.80;;;35.50;27.70;;;;;;5052795;28;20561;-75
2023/07/09 11:05:48;;;;;;;9.03;4.60;;;35.50;28.30;;;;;;5052030;28;20542;-75
2023/07/09 11:08:21;;;;;;;6.57;4.07;;;35.30;28.80;;;;;;5052363;28;20569;-75
2023/07/09 11:10:53;;;;;;;5.20;3.87;;;34.90;29.40;;;;;;5048098;28;20467;-76
2023/07/09 11:13:33;;;;;;;5.80;4.47;;;34.90;29.60;;;;;;5051245;28;20466;-75
2023/07/09 11:16:00;;;;;;;7.43;4.20;;;35.10;29.50;;;;;;5052460;28;20975;-76
2023/07/09 11:18:34;;;;;;;9.03;4.10;;;35.40;29.20;;;;;;5052480;28;20936;-77
2023/07/09 11:21:00;;;;;;;6.63;4.40;;;35.60;28.80;;;;;;5047734;28;20490;-75
2023/07/09 11:23:36;;;;;;;9.90;4.43;;;35.70;28.40;;;;;;5051341;28;20442;-76
2023/07/09 11:26:26;;;;;;;7.30;4.53;;;35.90;27.50;;;;;;5054085;28;20461;-75
2023/07/09 11:29:09;;;;;;;8.03;4.27;;;36.20;25.10;;;;;;5053670;28;20483;-75
2023/07/09 11:31:45;;;;;;;6.97;3.83;;;36.20;24.70;;;;;;5044904;28;20461;-74
2023/07/09 11:34:17;;;;;;;9.10;4.33;;;35.20;26.10;;;;;;5052577;28;20430;-76
2023/07/09 11:36:55;;;;;;;18.13;4.30;;;35.70;26.20;;;;;;5056397;28;20431;-75
2023/07/09 11:39:35;;;;;;;10.70;3.97;;;36.00;26.10;;;;;;5053630;28;20553;-74
2023/07/09 11:42:01;;;;;;;6.23;4.10;;;36.20;25.70;;;;;;5051992;28;20431;-75
2023/07/09 11:44:33;;;;;;;12.90;5.40;;;36.50;26.30;;;;;;5052124;28;20438;-75
2023/07/09 11:47:11;;;;;;;7.47;4.47;;;36.30;27.30;;;;;;5051925;28;20572;-75
2023/07/09 11:49:52;;;;;;;9.13;4.83;;;36.40;27.40;;;;;;5050971;28;20435;-75
2023/07/09 11:52:43;;;;;;;7.03;4.87;;;36.70;27.00;;;;;;5057338;28;20439;-75
2023/07/09 11:55:31;;;;;;;11.87;4.93;;;36.90;26.90;;;;;;5053285;28;20434;-74
2023/07/09 11:58:00;;;;;;;8.00;4.57;;;36.70;27.70;;;;;;5058199;28;20454;-76
2023/07/09 12:00:29;;;;;;;7.27;4.47;;;36.90;27.40;;;;;;5057872;28;20497;-76
2023/07/09 12:02:56;;;;;;;8.97;4.70;;;37.20;27.40;;;;;;5058090;28;20453;-75
2023/07/09 12:05:26;;;;;;;9.90;4.27;;;37.50;26.40;;;;;;5052268;28;20436;-75
2023/07/09 12:07:52;;;;;;;11.97;4.90;;;37.30;23.80;;;;;;5053329;28;20495;-75
2023/07/09 12:10:24;;;;;;;11.60;5.43;;;37.20;24.10;;;;;;5047586;28;20826;-76
2023/07/09 12:12:57;;;;;;;8.17;4.13;;;37.10;24.20;;;;;;5049631;28;20185;-74
2023/07/09 12:15:29;;;;;;;6.67;4.13;;;37.20;24.80;;;;;;5052867;28;20483;-74
2023/07/09 12:17:59;;;;;;;7.93;4.20;;;36.80;25.50;;;;;;5045964;28;20424;-75
2023/07/09 12:20:28;;;;;;;10.50;5.07;;;36.70;24.90;;;;;;5049088;28;20497;-75
2023/07/09 12:22:54;;;;;;;12.23;5.50;;;36.60;24.70;;;;;;5054790;28;20415;-76
2023/07/09 12:25:31;;;;;;;9.47;4.90;;;36.60;24.80;;;;;;5051635;28;21022;-75
2023/07/09 12:27:58;;;;;;;8.50;4.30;;;36.90;24.50;;;;;;5052099;28;20289;-74
2023/07/09 12:30:24;;;;;;;7.77;4.80;;;37.40;23.70;;;;;;5047818;28;20466;-75
2023/07/09 12:32:54;;;;;;;8.50;4.20;;;37.50;24.20;;;;;;5052081;28;20439;-76
2023/07/09 12:35:20;;;;;;;9.33;4.97;;;37.80;24.50;;;;;;5055549;28;20821;-76
2023/07/09 12:37:47;;;;;;;11.10;4.80;;;37.80;24.10;;;;;;5057395;28;20442;-77
2023/07/09 12:40:21;;;;;;;10.80;4.57;;;37.90;24.10;;;;;;5049351;28;20467;-77
2023/07/09 12:42:47;;;;;;;10.27;4.47;;;37.60;24.00;;;;;;5055346;28;20423;-76
2023/07/09 12:45:20;;;;;;;9.27;4.90;;;36.90;24.70;;;;;;5053762;28;21303;-75
2023/07/09 12:47:48;;;;;;;10.10;5.27;;;36.40;25.60;;;;;;5054142;28;20518;-73
2023/07/09 12:50:50;;;;;;;14.83;4.97;;;35.90;25.90;;;;;;5050344;28;20466;-73
2023/07/09 12:53:23;;;;;;;7.97;4.70;;;36.10;26.00;;;;;;4993451;28;20442;-74
2023/07/09 12:55:50;;;;;;;7.97;5.03;;;36.00;26.00;;;;;;4995970;28;20531;-76
2023/07/09 12:58:22;;;;;;;9.53;5.03;;;36.80;25.90;;;;;;4990120;28;20446;-73